createdAt,value
2018-07-02T00:00:18.085Z,57.57
2018-07-02T00:00:58.653Z,57.28
2018-07-02T00:01:39.204Z,57.48
2018-07-02T00:02:19.763Z,57.67
2018-07-02T00:03:00.328Z,57.95
2018-07-02T00:03:40.890Z,57.48
2018-07-02T00:04:21.467Z,57.38
2018-07-02T00:05:02.040Z,57.38
2018-07-02T00:05:42.597Z,57.95
2018-07-02T00:06:23.161Z,57.76
2018-07-02T00:07:03.716Z,57.76
2018-07-02T00:07:44.293Z,58.05
2018-07-02T00:08:24.859Z,57.86
2018-07-02T00:09:05.432Z,57.86
2018-07-02T00:09:46.000Z,58.05
2018-07-02T00:10:26.565Z,58.15
2018-07-02T00:11:07.117Z,58.44
2018-07-02T00:11:47.670Z,58.05
2018-07-02T00:12:28.246Z,58.34
2018-07-02T00:13:08.792Z,57.95
2018-07-02T00:13:49.334Z,57.76
2018-07-02T00:14:29.895Z,58.05
2018-07-02T00:15:10.464Z,58.44
2018-07-02T00:15:51.032Z,58.24
2018-07-02T00:16:31.618Z,58.24
2018-07-02T00:17:12.180Z,58.34
2018-07-02T00:17:52.738Z,58.34
2018-07-02T00:18:33.293Z,58.44
2018-07-02T00:19:13.854Z,58.24
2018-07-02T00:19:54.423Z,58.44
2018-07-02T00:20:34.964Z,58.44
2018-07-02T00:21:15.532Z,58.34
2018-07-02T00:21:56.086Z,58.24
2018-07-02T00:22:36.657Z,58.62
2018-07-02T00:23:17.226Z,58.34
2018-07-02T00:23:57.779Z,58.91
2018-07-02T00:24:38.349Z,58.81
2018-07-02T00:25:18.929Z,58.72
2018-07-02T00:25:59.495Z,58.24
2018-07-02T00:26:40.051Z,58.81
2018-07-02T00:27:20.614Z,58.05
2018-07-02T00:28:01.178Z,58.24
2018-07-02T00:28:41.747Z,58.05
2018-07-02T00:29:22.295Z,58.24
2018-07-02T00:30:02.877Z,58.62
2018-07-02T00:30:43.433Z,58.62
2018-07-02T00:31:24.018Z,58.44
2018-07-02T00:32:04.598Z,59.01
2018-07-02T00:32:45.130Z,59.39
2018-07-02T00:33:25.684Z,59.3
2018-07-02T00:34:06.243Z,59.39
2018-07-02T00:34:46.793Z,58.91
2018-07-02T00:35:27.340Z,58.91
2018-07-02T00:36:07.891Z,58.81
2018-07-02T00:36:48.447Z,59.01
2018-07-02T00:37:29.009Z,58.79
2018-07-02T00:38:09.576Z,59.45
2018-07-02T00:38:50.137Z,58.59
2018-07-02T00:39:30.728Z,58.79
2018-07-02T00:40:11.290Z,58.88
2018-07-02T00:40:51.862Z,59.08
2018-07-02T00:41:32.432Z,59.55
2018-07-02T00:42:13.000Z,60.41
2018-07-02T00:42:53.558Z,59.55
2018-07-02T00:43:34.137Z,59.75
2018-07-02T00:44:14.684Z,59.84
2018-07-02T00:44:55.235Z,59.65
2018-07-02T00:45:35.799Z,59.65
2018-07-02T00:46:16.345Z,59.65
2018-07-02T00:46:56.908Z,59.84
2018-07-02T00:47:37.462Z,59.55
2018-07-02T00:48:18.025Z,59.65
2018-07-02T00:48:58.585Z,59.55
2018-07-02T00:49:41.965Z,59.65
2018-07-02T00:50:22.531Z,59.65
2018-07-02T00:51:03.089Z,60.03
2018-07-02T00:51:43.661Z,60.51
2018-07-02T00:52:24.221Z,59.94
2018-07-02T00:53:04.789Z,60.32
2018-07-02T00:53:45.355Z,60.03
2018-07-02T00:54:25.906Z,60.13
2018-07-02T00:55:06.466Z,60.61
2018-07-02T00:55:47.023Z,60.51
2018-07-02T00:56:27.577Z,60.7
2018-07-02T00:57:08.157Z,60.61
2018-07-02T00:57:48.785Z,60.51
2018-07-02T00:58:29.324Z,60.51
2018-07-02T00:59:09.894Z,60.89
2018-07-02T00:59:50.446Z,60.61
2018-07-02T01:00:30.996Z,60.8
2018-07-02T01:01:11.548Z,60.7
2018-07-02T01:01:52.099Z,60.7
2018-07-02T01:02:32.660Z,60.7
2018-07-02T01:03:13.240Z,60.22
2018-07-02T01:03:53.804Z,60.13
2018-07-02T01:04:34.371Z,60.32
2018-07-02T01:05:14.943Z,61.08
2018-07-02T01:05:55.498Z,60.99
2018-07-02T01:06:36.052Z,61.08
2018-07-02T01:07:16.603Z,60.7
2018-07-02T01:07:57.154Z,60.22
2018-07-02T01:08:37.708Z,60.41
2018-07-02T01:09:18.302Z,60.61
2018-07-02T01:09:58.862Z,60.7
2018-07-02T01:10:39.430Z,60.61
2018-07-02T01:11:19.994Z,60.89
2018-07-02T01:12:00.559Z,61.08
2018-07-02T01:12:41.107Z,60.7
2018-07-02T01:13:21.678Z,60.61
2018-07-02T01:14:02.239Z,61.08
2018-07-02T01:14:42.788Z,60.7
2018-07-02T01:15:23.358Z,60.51
2018-07-02T01:16:03.922Z,60.89
2018-07-02T01:16:44.487Z,61.37
2018-07-02T01:17:25.054Z,61.08
2018-07-02T01:18:05.619Z,60.99
2018-07-02T01:18:46.175Z,60.99
2018-07-02T01:19:26.756Z,61.08
2018-07-02T01:20:07.327Z,60.99
2018-07-02T01:20:47.897Z,61.66
2018-07-02T01:21:28.468Z,61.28
2018-07-02T01:22:09.024Z,61.18
2018-07-02T01:22:49.591Z,60.99
2018-07-02T01:23:30.158Z,61.08
2018-07-02T01:24:10.716Z,61.47
2018-07-02T01:24:51.296Z,61.18
2018-07-02T01:25:31.870Z,61.66
2018-07-02T01:26:12.429Z,61.18
2018-07-02T01:26:53.011Z,61.47
2018-07-02T01:27:33.566Z,61.08
2018-07-02T01:28:14.126Z,60.99
2018-07-02T01:28:54.679Z,61.18
2018-07-02T01:29:35.248Z,61.37
2018-07-02T01:30:15.826Z,60.99
2018-07-02T01:30:56.381Z,61.28
2018-07-02T01:31:36.914Z,61.66
2018-07-02T01:32:17.484Z,61.28
2018-07-02T01:32:58.044Z,61.66
2018-07-02T01:33:38.589Z,61.66
2018-07-02T01:34:19.209Z,61.57
2018-07-02T01:34:59.688Z,61.57
2018-07-02T01:35:40.265Z,61.57
2018-07-02T01:36:20.843Z,61.85
2018-07-02T01:37:01.414Z,61.66
2018-07-02T01:37:41.974Z,61.47
2018-07-02T01:38:22.541Z,61.85
2018-07-02T01:39:03.100Z,62.23
2018-07-02T01:39:43.661Z,62.14
2018-07-02T01:40:24.223Z,62.23
2018-07-02T01:41:04.790Z,62.33
2018-07-02T01:41:45.350Z,61.94
2018-07-02T01:42:25.918Z,62.52
2018-07-02T01:43:06.468Z,62.9
2018-07-02T01:43:47.062Z,62.62
2018-07-02T01:44:27.624Z,62.23
2018-07-02T01:45:08.188Z,62.62
2018-07-02T01:45:48.757Z,62.62
2018-07-02T01:46:29.330Z,62.62
2018-07-02T01:47:09.888Z,62.52
2018-07-02T01:47:50.498Z,62.62
2018-07-02T01:48:31.092Z,62.33
2018-07-02T01:49:11.660Z,62.62
2018-07-02T01:49:52.228Z,62.71
2018-07-02T01:50:32.782Z,62.62
2018-07-02T01:51:13.344Z,62.52
2018-07-02T01:51:53.925Z,63.1
2018-07-02T01:52:34.508Z,62.62
2018-07-02T01:53:15.076Z,62.81
2018-07-02T01:53:55.643Z,62.71
2018-07-02T01:54:36.207Z,62.62
2018-07-02T01:55:16.778Z,62.71
2018-07-02T01:55:57.350Z,62.81
2018-07-02T01:56:37.916Z,62.52
2018-07-02T01:57:18.471Z,62.52
2018-07-02T01:57:59.034Z,62.81
2018-07-02T01:58:39.605Z,62.9
2018-07-02T01:59:20.176Z,63.19
2018-07-02T02:00:00.749Z,63
2018-07-02T02:00:41.309Z,63.29
2018-07-02T02:01:21.871Z,63.1
2018-07-02T02:02:02.441Z,62.87
2018-07-02T02:02:42.996Z,62.81
2018-07-02T02:03:23.556Z,62.81
2018-07-02T02:04:04.116Z,62.81
2018-07-02T02:04:44.686Z,63.19
2018-07-02T02:05:25.255Z,63.19
2018-07-02T02:06:05.833Z,63.19
2018-07-02T02:06:46.385Z,62.9
2018-07-02T02:07:26.955Z,63.19
2018-07-02T02:08:07.518Z,63.1
2018-07-02T02:08:48.093Z,63.29
2018-07-02T02:09:28.662Z,63.48
2018-07-02T02:10:09.226Z,63.19
2018-07-02T02:10:49.788Z,62.62
2018-07-02T02:11:30.347Z,63.64
2018-07-02T02:12:10.899Z,63.29
2018-07-02T02:12:51.459Z,63.19
2018-07-02T02:13:32.027Z,63.19
2018-07-02T02:14:12.589Z,63.39
2018-07-02T02:14:53.155Z,63.76
2018-07-02T02:15:33.728Z,63.76
2018-07-02T02:16:14.271Z,63.96
2018-07-02T02:16:54.837Z,64.05
2018-07-02T02:17:35.396Z,63.96
2018-07-02T02:18:15.952Z,63.67
2018-07-02T02:18:56.520Z,63.39
2018-07-02T02:19:37.082Z,63.57
2018-07-02T02:20:17.649Z,63.57
2018-07-02T02:20:58.212Z,63.76
2018-07-02T02:21:38.767Z,63.29
2018-07-02T02:22:19.338Z,63.19
2018-07-02T02:22:59.886Z,63.39
2018-07-02T02:23:40.441Z,63.19
2018-07-02T02:24:21.009Z,63.1
2018-07-02T02:25:01.598Z,63.48
2018-07-02T02:25:42.120Z,63.48
2018-07-02T02:26:22.696Z,63.19
2018-07-02T02:27:03.260Z,62.9
2018-07-02T02:27:43.841Z,63.19
2018-07-02T02:28:24.396Z,63
2018-07-02T02:29:04.960Z,63.39
2018-07-02T02:29:45.515Z,63.39
2018-07-02T02:30:26.081Z,63.39
2018-07-02T02:31:06.637Z,63
2018-07-02T02:31:47.195Z,63.19
2018-07-02T02:32:27.754Z,63.57
2018-07-02T02:33:08.321Z,63.48
2018-07-02T02:33:48.880Z,63.19
2018-07-02T02:34:29.438Z,63.19
2018-07-02T02:35:10.010Z,63.1
2018-07-02T02:35:50.560Z,63
2018-07-02T02:36:31.117Z,62.9
2018-07-02T02:37:11.670Z,63.39
2018-07-02T02:37:52.235Z,63.48
2018-07-02T02:38:32.801Z,63.29
2018-07-02T02:39:13.353Z,63.39
2018-07-02T02:39:53.917Z,63.86
2018-07-02T02:40:34.487Z,63.57
2018-07-02T02:41:15.051Z,63.86
2018-07-02T02:41:55.629Z,63.48
2018-07-02T02:42:36.176Z,64.05
2018-07-02T02:43:16.730Z,63.1
2018-07-02T02:43:57.307Z,63.76
2018-07-02T02:44:37.855Z,63.86
2018-07-02T02:45:18.448Z,63.86
2018-07-02T02:45:59.009Z,63.39
2018-07-02T02:46:39.561Z,63.19
2018-07-02T02:47:20.152Z,63.39
2018-07-02T02:48:00.708Z,63.19
2018-07-02T02:48:41.268Z,63.51
2018-07-02T02:49:21.830Z,63.39
2018-07-02T02:50:02.396Z,62.62
2018-07-02T02:50:42.955Z,63.29
2018-07-02T02:51:23.515Z,63.1
2018-07-02T02:52:04.080Z,63.29
2018-07-02T02:52:44.644Z,62.81
2018-07-02T02:53:25.196Z,63.1
2018-07-02T02:54:05.761Z,63.48
2018-07-02T02:54:46.334Z,63.1
2018-07-02T02:55:26.900Z,63.19
2018-07-02T02:56:07.473Z,62.62
2018-07-02T02:56:48.034Z,63.1
2018-07-02T02:57:28.599Z,62.71
2018-07-02T02:58:09.166Z,63
2018-07-02T02:58:49.738Z,62.43
2018-07-02T02:59:30.318Z,62.65
2018-07-02T03:00:10.890Z,62.65
2018-07-02T03:00:51.451Z,63
2018-07-02T03:01:32.005Z,62.93
2018-07-02T03:02:12.588Z,62.62
2018-07-02T03:02:53.154Z,62.52
2018-07-02T03:03:33.720Z,62.65
2018-07-02T03:04:14.282Z,62.62
2018-07-02T03:04:54.855Z,62.33
2018-07-02T03:05:35.422Z,62.62
2018-07-02T03:06:15.974Z,62.9
2018-07-02T03:06:56.554Z,62.9
2018-07-02T03:07:37.115Z,62.9
2018-07-02T03:08:17.670Z,62.81
2018-07-02T03:08:58.249Z,62.62
2018-07-02T03:09:38.858Z,62.62
2018-07-02T03:10:19.388Z,62.9
2018-07-02T03:10:59.940Z,62.9
2018-07-02T03:11:40.495Z,62.81
2018-07-02T03:12:21.052Z,62.71
2018-07-02T03:13:01.611Z,62.81
2018-07-02T03:13:42.183Z,62.43
2018-07-02T03:14:22.749Z,62.81
2018-07-02T03:15:03.302Z,63.1
2018-07-02T03:15:43.853Z,63.19
2018-07-02T03:16:24.420Z,63.48
2018-07-02T03:17:04.969Z,63.57
2018-07-02T03:17:45.528Z,64.15
2018-07-02T03:18:26.122Z,63.76
2018-07-02T03:19:06.690Z,63.96
2018-07-02T03:19:47.264Z,63.76
2018-07-02T03:20:27.902Z,63.39
2018-07-02T03:21:08.378Z,63.19
2018-07-02T03:21:48.927Z,63.48
2018-07-02T03:22:29.482Z,63.19
2018-07-02T03:23:10.014Z,63.19
2018-07-02T03:23:50.568Z,63.1
2018-07-02T03:24:31.122Z,63.29
2018-07-02T03:25:11.681Z,63.19
2018-07-02T03:25:52.211Z,63.1
2018-07-02T03:26:32.779Z,63.39
2018-07-02T03:27:13.354Z,63.57
2018-07-02T03:27:53.920Z,63.57
2018-07-02T03:28:34.490Z,63.96
2018-07-02T03:29:15.044Z,63.19
2018-07-02T03:29:55.621Z,63.48
2018-07-02T03:30:36.173Z,63.67
2018-07-02T03:31:16.739Z,64.53
2018-07-02T03:31:57.308Z,64.43
2018-07-02T03:32:37.840Z,63.86
2018-07-02T03:33:18.434Z,64.34
2018-07-02T03:33:58.982Z,64.34
2018-07-02T03:34:39.560Z,64.25
2018-07-02T03:35:20.129Z,64.25
2018-07-02T03:36:00.697Z,64.25
2018-07-02T03:36:41.253Z,64.63
2018-07-02T03:37:21.821Z,64.34
2018-07-02T03:38:02.388Z,64.53
2018-07-02T03:38:42.956Z,64.72
2018-07-02T03:39:23.529Z,64.25
2018-07-02T03:40:04.071Z,64.25
2018-07-02T03:40:44.638Z,64.25
2018-07-02T03:41:25.207Z,64.72
2018-07-02T03:42:05.757Z,64.63
2018-07-02T03:42:46.324Z,64.72
2018-07-02T03:43:26.886Z,64.72
2018-07-02T03:44:07.466Z,64.05
2018-07-02T03:44:48.022Z,64.15
2018-07-02T03:45:28.597Z,64.25
2018-07-02T03:46:09.142Z,64.43
2018-07-02T03:46:49.714Z,63.86
2018-07-02T03:47:30.256Z,64.05
2018-07-02T03:48:10.812Z,64.34
2018-07-02T03:48:51.413Z,64.25
2018-07-02T03:49:31.977Z,64.43
2018-07-02T03:50:12.534Z,64.43
2018-07-02T03:50:53.103Z,64.25
2018-07-02T03:51:33.649Z,64.15
2018-07-02T03:52:14.209Z,63.96
2018-07-02T03:52:54.768Z,64.05
2018-07-02T03:53:35.334Z,64.34
2018-07-02T03:54:15.909Z,64.53
2018-07-02T03:54:56.487Z,64.25
2018-07-02T03:55:37.035Z,64.25
2018-07-02T03:56:17.600Z,64.63
2018-07-02T03:56:58.163Z,64.72
2018-07-02T03:57:38.712Z,64.82
2018-07-02T03:58:19.276Z,65.3
2018-07-02T03:58:59.828Z,64.72
2018-07-02T03:59:40.401Z,64.82
2018-07-02T04:00:20.954Z,64.92
2018-07-02T04:01:01.523Z,64.72
2018-07-02T04:01:42.082Z,65.01
2018-07-02T04:02:22.647Z,64.63
2018-07-02T04:03:03.225Z,64.72
2018-07-02T04:03:43.773Z,64.72
2018-07-02T04:04:24.318Z,64.63
2018-07-02T04:05:04.921Z,64.82
2018-07-02T04:05:45.498Z,65.39
2018-07-02T04:06:26.072Z,64.92
2018-07-02T04:07:06.619Z,64.43
2018-07-02T04:07:47.177Z,65.11
2018-07-02T04:08:27.732Z,65.11
2018-07-02T04:09:08.279Z,64.82
2018-07-02T04:09:48.834Z,64.34
2018-07-02T04:10:29.392Z,64.43
2018-07-02T04:11:09.965Z,64.72
2018-07-02T04:11:50.535Z,65.2
2018-07-02T04:12:31.115Z,65.11
2018-07-02T04:13:11.682Z,64.43
2018-07-02T04:13:52.248Z,64.92
2018-07-02T04:14:32.837Z,65.39
2018-07-02T04:15:13.391Z,64.92
2018-07-02T04:15:53.957Z,64.72
2018-07-02T04:16:34.518Z,65.36
2018-07-02T04:17:15.081Z,65.3
2018-07-02T04:17:55.668Z,65.36
2018-07-02T04:18:36.249Z,65.45
2018-07-02T04:19:16.924Z,65.26
2018-07-02T04:19:57.444Z,65.08
2018-07-02T04:20:38.004Z,65.36
2018-07-02T04:21:18.567Z,65.65
2018-07-02T04:21:59.121Z,65.55
2018-07-02T04:22:39.689Z,65.74
2018-07-02T04:23:20.256Z,65.74
2018-07-02T04:24:00.831Z,65.94
2018-07-02T04:24:41.393Z,66.03
2018-07-02T04:25:21.957Z,66.03
2018-07-02T04:26:02.511Z,65.94
2018-07-02T04:26:43.074Z,65.74
2018-07-02T04:27:23.650Z,65.94
2018-07-02T04:28:04.220Z,65.94
2018-07-02T04:28:44.772Z,66.32
2018-07-02T04:29:25.368Z,66.03
2018-07-02T04:30:05.915Z,65.94
2018-07-02T04:30:46.466Z,66.13
2018-07-02T04:31:27.028Z,66.13
2018-07-02T04:32:07.598Z,66.03
2018-07-02T04:32:48.172Z,66.32
2018-07-02T04:33:28.725Z,66.32
2018-07-02T04:34:09.319Z,66.22
2018-07-02T04:34:49.860Z,66.03
2018-07-02T04:35:30.441Z,66.51
2018-07-02T04:36:10.992Z,65.94
2018-07-02T04:36:51.549Z,66.61
2018-07-02T04:37:32.188Z,66.61
2018-07-02T04:38:12.751Z,66.03
2018-07-02T04:38:53.312Z,66.32
2018-07-02T04:39:33.908Z,66.41
2018-07-02T04:40:14.476Z,65.94
2018-07-02T04:40:55.042Z,65.84
2018-07-02T04:41:35.596Z,65.74
2018-07-02T04:42:16.155Z,65.94
2018-07-02T04:42:56.698Z,66.03
2018-07-02T04:43:37.410Z,65.08
2018-07-02T04:44:17.967Z,65.36
2018-07-02T04:44:58.711Z,65.39
2018-07-02T04:45:39.280Z,64.82
2018-07-02T04:46:19.859Z,64.92
2018-07-02T04:47:00.429Z,64.72
2018-07-02T04:47:40.988Z,64.72
2018-07-02T04:48:21.557Z,64.15
2018-07-02T04:49:02.134Z,64.15
2018-07-02T04:49:42.700Z,64.34
2018-07-02T04:50:23.250Z,64.25
2018-07-02T04:51:03.850Z,64.43
2018-07-02T04:51:44.386Z,63.76
2018-07-02T04:52:24.940Z,63.57
2018-07-02T04:53:05.506Z,63.96
2018-07-02T04:53:46.082Z,63.67
2018-07-02T04:54:26.913Z,64.05
2018-07-02T04:55:07.745Z,63.86
2018-07-02T04:55:49.290Z,63.96
2018-07-02T04:56:31.075Z,63.6
2018-07-02T04:57:12.091Z,63.13
2018-07-02T04:57:53.152Z,63.13
2018-07-02T04:58:35.059Z,62.74
2018-07-02T04:59:16.223Z,62.74
2018-07-02T04:59:57.332Z,62.65
2018-07-02T05:00:38.291Z,62.84
2018-07-02T05:01:21.361Z,62.74
2018-07-02T05:02:06.020Z,62.74
2018-07-02T05:02:47.356Z,62.55
2018-07-02T05:03:28.455Z,62.55
2018-07-02T05:04:09.598Z,62.84
2018-07-02T05:04:51.711Z,62.46
2018-07-02T05:05:32.810Z,62.26
2018-07-02T05:06:13.892Z,62.26
2018-07-02T05:06:56.020Z,62.36
2018-07-02T05:07:37.078Z,62.46
2018-07-02T05:08:19.108Z,62.46
2018-07-02T05:09:00.111Z,62.26
2018-07-02T05:09:41.214Z,62.49
2018-07-02T05:10:23.113Z,62.59
2018-07-02T05:11:04.140Z,62.3
2018-07-02T05:11:46.063Z,62.39
2018-07-02T05:12:27.124Z,61.82
2018-07-02T05:13:08.276Z,62.01
2018-07-02T05:13:49.304Z,61.82
2018-07-02T05:14:30.311Z,61.82
2018-07-02T05:15:11.452Z,61.91
2018-07-02T05:15:52.491Z,61.15
2018-07-02T05:16:33.667Z,61.43
2018-07-02T05:17:15.639Z,61.34
2018-07-02T05:17:57.816Z,61.24
2018-07-02T05:18:38.864Z,61.15
2018-07-02T05:19:20.040Z,60.86
2018-07-02T05:20:01.187Z,61.15
2018-07-02T05:20:42.292Z,60.47
2018-07-02T05:21:23.344Z,60.47
2018-07-02T05:22:04.478Z,60.47
2018-07-02T05:22:45.360Z,60.57
2018-07-02T05:23:26.451Z,60.57
2018-07-02T05:24:07.571Z,60.67
2018-07-02T05:24:48.728Z,60.67
2018-07-02T05:25:29.747Z,60.5
2018-07-02T05:26:10.780Z,60.31
2018-07-02T05:26:51.886Z,60.12
2018-07-02T05:27:33.013Z,59.83
2018-07-02T05:28:15.015Z,59.93
2018-07-02T05:28:56.266Z,59.26
2018-07-02T05:29:37.375Z,59.45
2018-07-02T05:30:19.012Z,58.71
2018-07-02T05:31:00.031Z,57.37
2018-07-02T05:31:40.894Z,57.46
2018-07-02T05:32:21.948Z,57.46
2018-07-02T05:33:02.917Z,57.46
2018-07-02T05:33:44.678Z,57.85
2018-07-02T05:34:25.757Z,58.42
2018-07-02T05:35:07.785Z,57.37
2018-07-02T05:35:48.788Z,57.11
2018-07-02T05:36:29.783Z,57.01
2018-07-02T05:37:10.683Z,56.63
2018-07-02T05:37:51.558Z,56.63
2018-07-02T05:38:32.484Z,55.89
2018-07-02T05:39:13.940Z,56.27
2018-07-02T05:39:54.909Z,55.51
2018-07-02T05:40:35.915Z,54.83
2018-07-02T05:41:17.044Z,55.02
2018-07-02T05:41:58.877Z,54.86
2018-07-02T05:42:41.818Z,53.52
2018-07-02T05:43:22.757Z,53.7
2018-07-02T05:44:03.787Z,53.9
2018-07-02T05:44:45.272Z,53.32
2018-07-02T05:45:26.220Z,52.68
2018-07-02T05:46:07.286Z,52.29
2018-07-02T05:46:48.366Z,52.29
2018-07-02T05:47:29.403Z,52.1
2018-07-02T05:48:10.495Z,52.39
2018-07-02T05:48:51.529Z,53.16
2018-07-02T05:49:32.692Z,53.83
2018-07-02T05:50:13.667Z,51.81
2018-07-02T05:50:55.679Z,51.72
2018-07-02T05:51:36.687Z,51.72
2018-07-02T05:52:17.624Z,51.55
2018-07-02T05:52:58.825Z,51.55
2018-07-02T05:53:39.822Z,52.7
2018-07-02T05:54:20.831Z,52.42
2018-07-02T05:55:01.812Z,52.42
2018-07-02T05:55:43.426Z,50.49
2018-07-02T05:56:24.603Z,50.42
2018-07-02T05:57:05.650Z,49.94
2018-07-02T05:57:46.641Z,49.36
2018-07-02T05:58:27.840Z,49.17
2018-07-02T05:59:09.020Z,48.69
2018-07-02T05:59:50.192Z,47.34
2018-07-02T06:00:31.407Z,47.53
2018-07-02T06:01:12.476Z,48.21
2018-07-02T06:01:53.603Z,48.21
2018-07-02T06:02:34.494Z,48.69
2018-07-02T06:03:15.464Z,48.3
2018-07-02T06:03:56.496Z,47.82
2018-07-02T06:04:38.264Z,47.63
2018-07-02T06:05:19.102Z,47.72
2018-07-02T06:06:00.243Z,47.15
2018-07-02T06:06:41.268Z,47.63
2018-07-02T06:07:22.539Z,47.72
2018-07-02T06:08:04.631Z,47.44
2018-07-02T06:08:46.437Z,47.24
2018-07-02T06:09:27.610Z,48.11
2018-07-02T06:10:08.678Z,48.3
2018-07-02T06:10:49.816Z,48.11
2018-07-02T06:11:30.918Z,47.82
2018-07-02T06:12:12.121Z,48.03
2018-07-02T06:12:53.364Z,47.85
2018-07-02T06:13:34.525Z,48.33
2018-07-02T06:14:15.556Z,47.75
2018-07-02T06:14:56.507Z,46.98
2018-07-02T06:15:37.386Z,46.88
2018-07-02T06:16:18.504Z,47.08
2018-07-02T06:16:59.467Z,47.19
2018-07-02T06:17:41.378Z,47.87
2018-07-02T06:18:22.541Z,47.67
2018-07-02T06:19:05.025Z,45.36
2018-07-02T06:19:46.073Z,45.27
2018-07-02T06:20:27.249Z,45.07
2018-07-02T06:21:08.380Z,45.07
2018-07-02T06:21:49.402Z,45.07
2018-07-02T06:22:30.365Z,46.23
2018-07-02T06:23:11.571Z,46.91
2018-07-02T06:23:52.713Z,47.1
2018-07-02T06:24:35.294Z,47.29
2018-07-02T06:25:16.878Z,46.93
2018-07-02T06:25:57.992Z,45.39
2018-07-02T06:26:39.084Z,44.81
2018-07-02T06:27:20.117Z,44.04
2018-07-02T06:28:02.226Z,44.52
2018-07-02T06:28:43.351Z,45
2018-07-02T06:29:24.438Z,44.62
2018-07-02T06:30:05.947Z,44.71
2018-07-02T06:30:47.692Z,43.07
2018-07-02T06:31:28.751Z,43.55
2018-07-02T06:32:09.782Z,42.88
2018-07-02T06:32:50.789Z,43.07
2018-07-02T06:33:31.923Z,43.55
2018-07-02T06:34:13.948Z,42.49
2018-07-02T06:34:55.628Z,42.3
2018-07-02T06:35:36.799Z,42.49
2018-07-02T06:36:17.788Z,42.11
2018-07-02T06:36:59.609Z,41.72
2018-07-02T06:37:41.322Z,41.34
2018-07-02T06:38:22.510Z,42.49
2018-07-02T06:39:03.510Z,42.02
2018-07-02T06:39:44.510Z,42.3
2018-07-02T06:40:25.530Z,42.11
2018-07-02T06:41:06.607Z,41.14
2018-07-02T06:41:47.774Z,42.59
2018-07-02T06:42:29.798Z,42.4
2018-07-02T06:43:10.924Z,42.69
2018-07-02T06:43:51.845Z,42.3
2018-07-02T06:44:32.829Z,42.3
2018-07-02T06:45:14.149Z,44.13
2018-07-02T06:45:55.232Z,42.4
2018-07-02T06:46:36.320Z,43.37
2018-07-02T06:47:17.494Z,42.97
2018-07-02T06:47:58.569Z,41.92
2018-07-02T06:48:39.863Z,41.24
2018-07-02T06:49:21.102Z,40.95
2018-07-02T06:50:02.170Z,41.36
2018-07-02T06:50:43.196Z,41.55
2018-07-02T06:51:24.390Z,40.88
2018-07-02T06:52:05.608Z,41.17
2018-07-02T06:52:46.674Z,41.07
2018-07-02T06:53:28.286Z,41.46
2018-07-02T06:54:09.229Z,41.17
2018-07-02T06:54:50.324Z,42.03
2018-07-02T06:55:31.487Z,41.27
2018-07-02T06:56:13.136Z,40.22
2018-07-02T06:56:54.059Z,39.84
2018-07-02T06:57:35.152Z,39.64
2018-07-02T06:58:16.230Z,39.64
2018-07-02T06:58:57.268Z,39.54
2018-07-02T06:59:38.419Z,38.68
2018-07-02T07:00:19.527Z,38.87
2018-07-02T07:01:01.156Z,39.74
2018-07-02T07:01:42.839Z,39.16
2018-07-02T07:02:24.099Z,37.52
2018-07-02T07:03:06.138Z,38.87
2018-07-02T07:03:47.264Z,39.06
2018-07-02T07:04:28.250Z,36.94
2018-07-02T07:05:09.476Z,36.17
2018-07-02T07:05:51.687Z,37.62
2018-07-02T07:06:33.955Z,38.87
2018-07-02T07:07:15.186Z,38.39
2018-07-02T07:07:56.398Z,38.29
2018-07-02T07:08:38.117Z,38.78
2018-07-02T07:09:18.994Z,38.97
2018-07-02T07:09:59.955Z,39.84
2018-07-02T07:10:41.053Z,37.91
2018-07-02T07:11:22.266Z,37.35
2018-07-02T07:12:03.560Z,37.63
2018-07-02T07:12:45.418Z,37.25
2018-07-02T07:13:26.363Z,37.35
2018-07-02T07:14:07.435Z,37.73
2018-07-02T07:14:48.589Z,38.6
2018-07-02T07:15:29.761Z,38.99
2018-07-02T07:16:10.561Z,36.87
2018-07-02T07:16:51.453Z,37.54
2018-07-02T07:17:32.681Z,37.54
2018-07-02T07:18:13.823Z,36.67
2018-07-02T07:18:55.181Z,36.19
2018-07-02T07:19:36.271Z,35.71
2018-07-02T07:20:17.489Z,34.36
2018-07-02T07:20:59.075Z,35.32
2018-07-02T07:21:40.213Z,36.38
2018-07-02T07:22:21.244Z,36.29
2018-07-02T07:23:02.490Z,36.77
2018-07-02T07:23:43.792Z,36.09
2018-07-02T07:24:24.914Z,36.48
2018-07-02T07:25:05.952Z,36.87
2018-07-02T07:25:47.937Z,37.46
2018-07-02T07:26:30.066Z,36.3
2018-07-02T07:27:11.398Z,36.21
2018-07-02T07:27:53.333Z,36.4
2018-07-02T07:28:34.464Z,37.17
2018-07-02T07:29:15.479Z,37.37
2018-07-02T07:29:57.378Z,37.56
2018-07-02T07:30:39.306Z,37.37
2018-07-02T07:31:21.364Z,35.36
2018-07-02T07:32:02.407Z,36.32
2018-07-02T07:32:43.520Z,36.21
2018-07-02T07:33:24.775Z,35.64
2018-07-02T07:34:05.914Z,34.48
2018-07-02T07:34:46.984Z,34.1
2018-07-02T07:35:28.969Z,34.39
2018-07-02T07:36:10.130Z,35.05
2018-07-02T07:36:51.299Z,35.45
2018-07-02T07:37:32.284Z,35.55
2018-07-02T07:38:13.095Z,34.39
2018-07-02T07:38:54.281Z,34.1
2018-07-02T07:39:35.556Z,32.26
2018-07-02T07:40:17.457Z,32.46
2018-07-02T07:40:58.683Z,33.62
2018-07-02T07:41:39.906Z,34.56
2018-07-02T07:42:21.897Z,34.78
2018-07-02T07:43:03.039Z,33.98
2018-07-02T07:43:44.280Z,34.29
2018-07-02T07:44:25.446Z,34.78
2018-07-02T07:45:06.556Z,36.32
2018-07-02T07:45:47.866Z,35.16
2018-07-02T07:46:29.165Z,33.72
2018-07-02T07:47:10.300Z,34.48
2018-07-02T07:47:51.505Z,34.68
2018-07-02T07:48:32.532Z,35.36
2018-07-02T07:49:13.619Z,35.16
2018-07-02T07:49:55.410Z,34.87
2018-07-02T07:50:36.509Z,34.97
2018-07-02T07:51:17.661Z,34.78
2018-07-02T07:51:59.428Z,34.78
2018-07-02T07:52:40.624Z,34.5
2018-07-02T07:53:21.971Z,35.08
2018-07-02T07:54:03.133Z,36.24
2018-07-02T07:54:44.442Z,36.24
2018-07-02T07:55:25.580Z,35.37
2018-07-02T07:56:06.744Z,34.41
2018-07-02T07:56:47.923Z,35.18
2018-07-02T07:57:29.245Z,32.47
2018-07-02T07:58:10.434Z,32.38
2018-07-02T07:58:51.613Z,32.76
2018-07-02T07:59:32.753Z,32.57
2018-07-02T08:00:14.393Z,30.93
2018-07-02T08:00:55.998Z,31.02
2018-07-02T08:01:37.166Z,31.22
2018-07-02T08:02:18.221Z,31.4
2018-07-02T08:02:59.428Z,31.49
2018-07-02T08:03:40.842Z,32.36
2018-07-02T08:04:21.946Z,31.49
2018-07-02T08:05:03.137Z,33.62
2018-07-02T08:05:44.121Z,32.26
2018-07-02T08:06:25.317Z,30.91
2018-07-02T08:07:06.416Z,31.3
2018-07-02T08:07:47.683Z,31.88
2018-07-02T08:08:28.629Z,33.04
2018-07-02T08:09:09.646Z,33.81
2018-07-02T08:09:50.680Z,33.81
2018-07-02T08:10:31.788Z,33.52
2018-07-02T08:11:12.787Z,33.72
2018-07-02T08:11:54.695Z,34.2
2018-07-02T08:12:35.624Z,33.81
2018-07-02T08:13:16.736Z,34.1
2018-07-02T08:13:57.812Z,33.33
2018-07-02T08:14:39.032Z,32.75
2018-07-02T08:15:20.200Z,32.56
2018-07-02T08:16:01.320Z,33.52
2018-07-02T08:16:42.417Z,33.42
2018-07-02T08:17:23.471Z,33.52
2018-07-02T08:18:04.739Z,34
2018-07-02T08:18:45.860Z,31.7
2018-07-02T08:19:26.942Z,30.73
2018-07-02T08:20:08.134Z,31.01
2018-07-02T08:20:49.254Z,31.98
2018-07-02T08:21:31.439Z,32.47
2018-07-02T08:22:12.584Z,31.22
2018-07-02T08:22:53.474Z,31.6
2018-07-02T08:23:35.746Z,31.3
2018-07-02T08:24:16.791Z,30.72
2018-07-02T08:24:57.848Z,30.91
2018-07-02T08:25:38.899Z,31.78
2018-07-02T08:26:20.713Z,30.91
2018-07-02T08:27:01.782Z,31.4
2018-07-02T08:27:43.022Z,32.34
2018-07-02T08:28:24.224Z,33.72
2018-07-02T08:29:05.468Z,34.1
2018-07-02T08:29:46.708Z,33.81
2018-07-02T08:30:28.763Z,34
2018-07-02T08:31:09.716Z,33.81
2018-07-02T08:31:50.846Z,31.68
2018-07-02T08:32:31.895Z,32.26
2018-07-02T08:33:13.094Z,33.72
2018-07-02T08:33:54.819Z,34
2018-07-02T08:34:35.842Z,33.42
2018-07-02T08:35:16.873Z,32.36
2018-07-02T08:35:57.968Z,32.56
2018-07-02T08:36:39.190Z,32.56
2018-07-02T08:37:20.972Z,32.26
2018-07-02T08:38:02.395Z,32.56
2018-07-02T08:38:43.549Z,33.72
2018-07-02T08:39:25.558Z,34.2
2018-07-02T08:40:06.750Z,33.33
2018-07-02T08:40:47.862Z,31.3
2018-07-02T08:41:28.982Z,30.91
2018-07-02T08:42:10.132Z,31.68
2018-07-02T08:42:51.160Z,32.36
2018-07-02T08:43:32.331Z,31.4
2018-07-02T08:44:15.169Z,32.84
2018-07-02T08:44:56.195Z,33.91
2018-07-02T08:45:37.149Z,32.26
2018-07-02T08:46:18.387Z,32.46
2018-07-02T08:46:59.447Z,32.36
2018-07-02T08:47:40.556Z,32.36
2018-07-02T08:48:21.674Z,32.75